Brewer, Maine
Current Conditions -  °F | °C
As of 5:53 PM on Sunday 21 Dec 2014 (Local Time) from KBGR Reporting Station
Overcast Overcast  
Wind Chill: 22°   Ceiling: 1100
Heat Index: 29°   Visibility: 10mi
Dew Point: 25°   Wind: 7mph
Humidity: 85%   Direction: 360°N
Pressure: 30.37"   Gusts: NA
Location:  44.8°N, 68.76°W
Report Text: KBGR 212253Z 36006KT 10SM BKN011 OVC034 M02/M04 A3037 RMK AO2 SLP286 T10171039
Loading
Personal Weather Stations






























Interactive Weather Map New forecast layout! Learn more

10-Day Weather Forecast

Advertisements
Track Severe Weather on mobile